| Date | Time | Temp. (oF) | Dew Point (oF) | Rel. Hum. (%) | Press. (in.) | Wind Dir. | Wind Speed (mph) | Hourly Rainfall (in.) |
|
|---|---|---|---|---|---|---|---|---|---|
| 1 | 02/20 | 00:00 | 25 | 17 | 74 | 30.39 | SSW | 3 | 0.00 |
| 2 | 02/19 | 23:00 | 24 | 16 | 73 | 30.39 | S | 2 | 0.00 |
| 3 | 02/19 | 22:00 | 26 | 16 | 68 | 30.38 | SSE | 2 | 0.00 |
| 4 | 02/19 | 21:00 | 26 | 15 | 64 | 30.38 | SW | 3 | 0.00 |
| 5 | miss | miss | miss | miss | miss | miss | miss | miss | |
| 6 | 02/19 | 20:48 | 26 | 15 | 63 | 30.38 | SSW | 2 | 0.00 |
| 7 | miss | miss | miss | miss | miss | miss | miss | miss | |
| 8 | 02/19 | 20:46 | 26 | 15 | 63 | 30.38 | SW | 2 | 0.00 |
| 9 | miss | miss | miss | miss | miss | miss | miss | miss | |
| 10 | 02/19 | 20:44 | 26 | 15 | 63 | 30.38 | SW | 1 | 0.00 |
| 11 | miss | miss | miss | miss | miss | miss | miss | miss | |
| 12 | 02/19 | 20:42 | 26 | 15 | 63 | 30.38 | SW | 1 | 0.00 |
| 13 | miss | miss | miss | miss | miss | miss | miss | miss | |
| 14 | 02/19 | 20:40 | 27 | 16 | 63 | 30.39 | SSW | 3 | 0.00 |
| 15 | miss | miss | miss | miss | miss | miss | miss | miss | |
| 16 | 02/19 | 20:38 | 26 | 15 | 63 | 30.39 | SW | 1 | 0.00 |
| 17 | miss | miss | miss | miss | miss | miss | miss | miss | |
| 18 | 02/19 | 20:36 | 26 | 15 | 63 | 30.38 | WSW | 2 | 0.00 |
| 19 | miss | miss | miss | miss | miss | miss | miss | miss | |
| 20 | 02/19 | 20:34 | 26 | 15 | 63 | 30.39 | SW | 4 | 0.00 |
| 21 | miss | miss | miss | miss | miss | miss | miss | miss | |
| 22 | 02/19 | 20:32 | 26 | 15 | 63 | 30.38 | WSW | 2 | 0.00 |
| 23 | miss | miss | miss | miss | miss | miss | miss | miss | |
| 24 | 02/19 | 20:30 | 26 | 15 | 63 | 30.38 | SSW | 4 | 0.00 |
| 25 | miss | miss | miss | miss | miss | miss | miss | miss | |
| 26 | 02/19 | 20:29 | 26 | 15 | 63 | 30.38 | SW | 3 | 0.00 |
| 27 | miss | miss | miss | miss | miss | miss | miss | miss | |
| 28 | 02/19 | 20:29 | 26 | 15 | 63 | 30.38 | SW | 3 | 0.00 |
| 29 | 02/19 | 20:00 | 26 | 14 | 61 | 30.37 | SSW | 1 | 0.00 |
| 30 | 02/19 | 19:00 | 28 | 13 | 55 | 30.36 | S | 1 | 0.00 |
| 31 | 02/19 | 18:00 | 30 | 14 | 52 | 30.34 | SW | 3 | 0.00 |
| 32 | 02/19 | 17:00 | 32 | 13 | 47 | 30.32 | W | 6 | 0.00 |
| 33 | 02/19 | 16:00 | 33 | 14 | 46 | 30.30 | NW | 7 | 0.00 |
| 34 | 02/19 | 15:00 | 31 | 14 | 49 | 30.30 | SSW | 10 | 0.00 |
| 35 | 02/19 | 14:00 | 29 | 10 | 46 | 30.31 | SW | 10 | 0.00 |
| 36 | 02/19 | 13:00 | 28 | 11 | 50 | 30.35 | W | 5 | 0.00 |
| 37 | 02/19 | 12:00 | 27 | 10 | 50 | 30.37 | SW | 6 | 0.00 |
| 38 | 02/19 | 11:00 | 25 | 9 | 51 | 30.40 | NNW | 5 | 0.00 |
| 39 | 02/19 | 10:00 | 22 | 7 | 53 | 30.40 | WNW | 8 | 0.00 |
| 40 | 02/19 | 09:00 | 19 | 6 | 58 | 30.40 | WNW | 9 | 0.00 |
| 41 | 02/19 | 08:00 | 16 | 7 | 68 | 30.40 | WNW | 3 | 0.00 |
| 42 | 02/19 | 907:58 | 17 | 7 | 67 | 16.00 | 07:59 | 2 | 6.00 |
| 43 | 02/19 | 07:57 | 16 | 7 | 68 | 30.40 | W | 7 | 0.00 |
| 44 | 02/19 | 07:56 | 16 | 7 | 68 | 30.40 | SSW | 4 | 0.00 |
| 45 | 02/19 | 07:55 | 16 | 7 | 68 | 30.39 | WNW | 5 | 0.00 |
| 46 | miss | miss | miss | miss | miss | miss | miss | miss | |
| 47 | 02/19 | 07:53 | 16 | 7 | 68 | 30.39 | WNW | 6 | 0.00 |
| 48 | miss | miss | miss | miss | miss | miss | miss | miss | |
| 49 | 02/19 | 07:51 | 16 | 7 | 68 | 30.39 | W | 7 | 0.00 |
| 50 | miss | miss | miss | miss | miss | miss | miss | miss | |
| 51 | 02/19 | 07:51 | 16 | 7 | 68 | 30.39 | W | 7 | 0.00 |
| 52 | miss | miss | miss | miss | miss | miss | miss | miss | |
| 53 | 02/19 | 07:51 | 16 | 7 | 68 | 30.39 | W | 7 | 0.00 |
| 54 | miss | miss | miss | miss | miss | miss | miss | miss | |
| 55 | 02/19 | 07:51 | 16 | 7 | 68 | 30.39 | W | 7 | 0.00 |
| 56 | miss | miss | miss | miss | miss | miss | miss | miss | |
| 57 | 02/19 | 07:51 | 16 | 7 | 68 | 30.39 | W | 7 | 0.00 |
| 58 | miss | miss | miss | miss | miss | miss | miss | miss | |
| 59 | 02/19 | 07:51 | 16 | 7 | 68 | 30.39 | W | 7 | 0.00 |
| 60 | miss | miss | miss | miss | miss | miss | miss | miss | |
| 61 | 02/19 | 07:51 | 16 | 7 | 68 | 30.39 | W | 7 | 0.00 |
| 62 | miss | miss | miss | miss | miss | miss | miss | miss | |
| 63 | 02/19 | 07:51 | 16 | 7 | 68 | 30.39 | W | 7 | 0.00 |
| 64 | miss | miss | miss | miss | miss | miss | miss | miss | |
| 65 | 02/19 | 07:51 | 16 | 7 | 68 | 30.39 | W | 7 | 0.00 |
| 66 | 02/19 | 07:00 | 15 | 7 | 71 | 30.37 | WNW | 6 | 0.00 |
| 67 | 02/19 | 06:00 | 14 | 6 | 73 | 30.35 | W | 6 | 0.00 |
| 68 | 02/19 | 05:00 | 14 | 6 | 70 | 30.33 | WSW | 2 | 0.00 |
| 69 | 02/19 | 04:00 | 16 | 6 | 66 | 30.31 | NW | 3 | 0.00 |
| 70 | 02/19 | 03:00 | 16 | 5 | 64 | 30.29 | NW | 2 | 0.00 |
| 71 | 02/19 | 02:00 | 17 | 6 | 64 | 30.28 | NW | 3 | 0.00 |
| 72 | 02/19 | 01:00 | 17 | 6 | 64 | 30.27 | NW | 5 | 0.00 |
| 73 | 02/19 | 00:00 | 18 | 7 | 63 | 30.27 | W | 5 | 0.00 |
| 74 | 02/18 | 23:00 | 19 | 7 | 59 | 30.26 | WNW | 9 | 0.00 |
| 75 | 02/18 | 22:00 | 20 | 7 | 57 | 30.27 | W | 5 | 0.00 |
| 76 | 02/18 | 21:00 | 21 | 6 | 54 | 30.26 | WNW | 9 | 0.00 |
| 77 | 02/18 | 20:00 | 21 | 5 | 51 | 30.23 | WNW | 8 | 0.00 |
| 78 | 02/18 | 19:00 | 22 | 6 | 50 | 30.21 | W | 14 | 0.00 |
| 79 | 02/18 | 18:00 | 23 | 6 | 49 | 30.17 | WNW | 6 | 0.00 |
| 80 | 02/18 | 17:00 | 25 | 7 | 47 | 30.15 | NW | 8 | 0.00 |
| 81 | 02/18 | 16:00 | 26 | 8 | 48 | 30.13 | WNW | 9 | 0.00 |
| 82 | 02/18 | 15:00 | 26 | 8 | 48 | 30.11 | WNW | 18 | 0.00 |
| 83 | 02/18 | 14:00 | 26 | 8 | 48 | 30.10 | SW | 9 | 0.00 |
| 84 | 02/18 | 13:00 | 26 | 8 | 47 | 30.11 | W | 6 | 0.00 |
| 85 | 02/18 | 12:00 | 24 | 6 | 46 | 30.13 | WNW | 9 | 0.00 |
| 86 | 02/18 | 11:00 | 24 | 8 | 52 | 30.13 | W | 12 | 0.00 |
| 87 | 02/18 | 10:00 | -5 | -18 | 50 | 1020.00 | W | 31 | 0.00 |
| 88 | 02/18 | 09:00 | 21 | 15 | 78 | 30.11 | WNW | 16 | 0.00 |
| 89 | 02/18 | 08:00 | 22 | 12 | 66 | 30.10 | NW | 7 | 0.00 |
| 90 | 02/18 | 07:00 | 21 | 13 | 71 | 30.07 | W | 12 | 0.00 |
| 91 | 02/18 | 06:00 | 22 | 14 | 73 | 30.05 | SW | 7 | 0.00 |
| 92 | 02/18 | 05:00 | 23 | 14 | 68 | 30.03 | WNW | 8 | 0.00 |
| 93 | 02/18 | 04:00 | 23 | 11 | 62 | 30.01 | WNW | 8 | 0.00 |
| 94 | 02/18 | 03:00 | 24 | 12 | 60 | 30.00 | WSW | 5 | 0.00 |
| 95 | 02/18 | 02:00 | 24 | 11 | 58 | 30.01 | W | 8 | 0.00 |
| 96 | 02/18 | 01:00 | 25 | 12 | 59 | 30.01 | NW | 4 | 0.00 |
| 97 | 02/18 | 00:00 | 27 | 13 | 56 | 30.00 | WNW | 5 | 0.00 |
| 98 | 02/17 | 23:00 | 28 | 17 | 64 | 29.99 | NW | 11 | 0.00 |